Time;durP1;ratioP1;P1;durP2;ratioP2;P2;SDS_P1;SDS_P2;PMS_P1;PMS_P2;Temp;Humidity;BMP_temperature;BMP_pressure;BME280_temperature;BME280_humidity;BME280_pressure;Samples;Min_cycle;Max_cycle;Signal;HPM_P1;HPM_P2
2022/11/25 00:00:17;;;;;;;;;;;3.90;99.90;;;;;;2621042;46;20029;31
2022/11/25 00:02:50;;;;;;;;;;;3.90;99.90;;;;;;2603422;54;20754;31
2022/11/25 00:05:24;;;;;;;;;;;3.90;99.90;;;;;;2603334;54;19934;31
2022/11/25 00:08:01;;;;;;;;;;;3.90;99.90;;;;;;2603249;54;20747;31
2022/11/25 00:10:38;;;;;;;;;;;3.90;99.90;;;;;;2621570;47;19960;31
2022/11/25 00:13:12;;;;;;;;;;;3.90;99.90;;;;;;2603289;54;20813;31
2022/11/25 00:15:45;;;;;;;;;;;3.90;99.90;;;;;;2621575;47;19954;31
2022/11/25 00:18:20;;;;;;;;;;;3.90;99.90;;;;;;2603260;54;19935;31
2022/11/25 00:20:55;;;;;;;;;;;3.90;99.90;;;;;;2618358;47;19946;31
2022/11/25 00:23:31;;;;;;;;;;;3.90;99.90;;;;;;2621995;47;19988;31
2022/11/25 00:26:08;;;;;;;;;;;3.90;99.90;;;;;;2603230;54;19935;31
2022/11/25 00:28:43;;;;;;;;;;;3.90;99.90;;;;;;2603024;54;20819;31
2022/11/25 00:31:18;;;;;;;;;;;3.90;99.90;;;;;;2603105;54;19957;31
2022/11/25 00:33:52;;;;;;;;;;;3.90;99.90;;;;;;2720054;39;20381;31
2022/11/25 00:36:26;;;;;;;;;;;4.10;99.90;;;;;;2603016;54;19947;31
2022/11/25 00:39:04;;;;;;;;;;;3.90;99.90;;;;;;2701813;39;20379;31
2022/11/25 00:44:39;;;;;;;;;;;3.90;99.90;;;;;;2603223;54;19935;31
2022/11/25 00:47:15;;;;;;;;;;;3.90;99.90;;;;;;2621639;47;19990;31
2022/11/25 00:49:49;;;;;;;;;;;3.90;99.90;;;;;;2621724;47;20006;31
2022/11/25 00:52:25;;;;;;;;;;;3.90;99.90;;;;;;2621471;47;19935;31
2022/11/25 00:55:01;;;;;;;;;;;3.90;99.90;;;;;;2621598;47;20802;31
2022/11/25 00:57:35;;;;;;;;;;;4.00;99.90;;;;;;2603100;54;19981;31
2022/11/25 01:00:12;;;;;;;;;;;4.00;99.90;;;;;;2621729;47;20742;31
2022/11/25 01:02:50;;;;;;;;;;;4.00;99.90;;;;;;2603765;54;19943;31
2022/11/25 01:05:23;;;;;;;;;;;4.00;99.90;;;;;;2622405;46;19939;31
2022/11/25 01:07:58;;;;;;;;;;;4.00;99.90;;;;;;2603698;54;19934;31
2022/11/25 01:10:34;;;;;;;;;;;4.00;99.90;;;;;;2604041;54;19998;31
2022/11/25 01:13:08;;;;;;;;;;;4.00;99.90;;;;;;2622517;46;20706;31
2022/11/25 01:15:45;;;;;;;;;;;4.00;99.90;;;;;;2603892;54;20736;31
2022/11/25 01:18:20;;;;;;;;;;;4.10;99.90;;;;;;2622357;46;20839;31
2022/11/25 01:20:56;;;;;;;;;;;4.00;99.90;;;;;;2603959;54;19934;31
2022/11/25 01:23:30;;;;;;;;;;;4.00;99.90;;;;;;2702681;39;20958;31
2022/11/25 01:26:08;;;;;;;;;;;4.10;99.90;;;;;;2603891;54;20715;31
2022/11/25 01:28:42;;;;;;;;;;;4.10;99.90;;;;;;2622462;46;19934;31
2022/11/25 01:31:18;;;;;;;;;;;4.00;99.90;;;;;;2622437;46;19993;31
2022/11/25 01:33:54;;;;;;;;;;;4.00;99.90;;;;;;2603753;54;19942;31
2022/11/25 01:36:28;;;;;;;;;;;4.10;99.90;;;;;;2622264;46;19934;31
2022/11/25 01:39:02;;;;;;;;;;;4.30;99.90;;;;;;2603602;54;19941;31
2022/11/25 01:41:40;;;;;;;;;;;4.60;99.90;;;;;;2622375;46;19946;31
2022/11/25 01:44:16;;;;;;;;;;;4.10;99.90;;;;;;2622612;46;20762;31
2022/11/25 01:46:52;;;;;;;;;;;4.10;99.90;;;;;;2603932;54;19966;31
2022/11/25 01:49:27;;;;;;;;;;;4.10;99.90;;;;;;2622245;46;19950;31
2022/11/25 01:52:02;;;;;;;;;;;4.10;99.90;;;;;;2603851;54;20738;31
2022/11/25 01:54:46;;;;;;;;;;;4.10;99.90;;;;;;2622131;46;19961;31
2022/11/25 01:57:23;;;;;;;;;;;4.10;99.90;;;;;;2622602;46;19934;31
2022/11/25 01:59:59;;;;;;;;;;;4.10;99.90;;;;;;2603552;54;20803;31
2022/11/25 02:02:35;;;;;;;;;;;4.10;99.90;;;;;;2603872;54;19935;31
2022/11/25 02:05:12;;;;;;;;;;;4.10;99.90;;;;;;2622264;46;19934;31
2022/11/25 02:07:46;;;;;;;;;;;4.10;99.90;;;;;;2702228;39;20484;31
2022/11/25 02:10:20;;;;;;;;;;;4.10;99.90;;;;;;2603586;54;19935;31
2022/11/25 02:12:57;;;;;;;;;;;4.10;99.90;;;;;;2603560;54;19942;31
2022/11/25 02:15:31;;;;;;;;;;;4.10;99.90;;;;;;2621907;46;19987;31
2022/11/25 02:18:04;;;;;;;;;;;4.10;99.90;;;;;;2622052;46;19946;31
2022/11/25 02:20:41;;;;;;;;;;;4.10;99.90;;;;;;2622037;46;19934;31
2022/11/25 02:23:21;;;;;;;;;;;4.10;99.90;;;;;;2773417;31;20418;31
2022/11/25 02:25:59;;;;;;;;;;;4.10;99.90;;;;;;2603564;54;19935;31
2022/11/25 02:28:33;;;;;;;;;;;4.10;99.90;;;;;;2603542;54;19934;31
2022/11/25 02:31:10;;;;;;;;;;;4.10;99.90;;;;;;2603614;54;20795;31
2022/11/25 02:33:45;;;;;;;;;;;4.10;99.90;;;;;;2603703;54;20741;31
2022/11/25 02:36:19;;;;;;;;;;;4.10;99.90;;;;;;2603351;54;19945;31
2022/11/25 02:38:54;;;;;;;;;;;4.10;99.90;;;;;;2603668;54;19973;31
2022/11/25 02:41:33;;;;;;;;;;;4.10;99.90;;;;;;2622246;46;19938;31
2022/11/25 02:44:10;;;;;;;;;;;4.10;99.90;;;;;;2603745;54;19934;31
2022/11/25 02:46:45;;;;;;;;;;;4.10;99.90;;;;;;2621948;46;20006;31
2022/11/25 02:49:21;;;;;;;;;;;4.10;99.90;;;;;;2603433;54;21441;31
2022/11/25 02:51:57;;;;;;;;;;;4.10;99.90;;;;;;2622299;46;19934;31
2022/11/25 02:54:35;;;;;;;;;;;4.10;99.90;;;;;;2603498;54;19957;31
2022/11/25 02:57:13;;;;;;;;;;;4.10;99.90;;;;;;2614288;46;20118;31
2022/11/25 02:59:47;;;;;;;;;;;4.20;99.90;;;;;;2603441;54;21427;31
2022/11/25 03:02:20;;;;;;;;;;;4.20;99.90;;;;;;2773478;31;21427;31
2022/11/25 03:04:55;;;;;;;;;;;4.20;99.90;;;;;;2602975;54;19976;31
2022/11/25 03:07:30;;;;;;;;;;;4.20;99.90;;;;;;2622092;46;20756;31
2022/11/25 03:10:07;;;;;;;;;;;4.30;99.90;;;;;;2603570;54;19954;31
2022/11/25 03:12:43;;;;;;;;;;;4.30;99.90;;;;;;2621708;46;20761;31
2022/11/25 03:15:19;;;;;;;;;;;4.30;99.90;;;;;;2603679;54;19935;31
2022/11/25 03:17:57;;;;;;;;;;;4.20;99.90;;;;;;2603178;54;20746;31
2022/11/25 03:20:34;;;;;;;;;;;4.30;99.90;;;;;;2621868;46;20796;31
2022/11/25 03:23:08;;;;;;;;;;;4.30;99.90;;;;;;2603437;54;20361;31
2022/11/25 03:25:43;;;;;;;;;;;4.30;99.90;;;;;;2720059;39;20313;31
2022/11/25 03:28:22;;;;;;;;;;;4.20;99.90;;;;;;2603176;54;19954;31
2022/11/25 03:30:55;;;;;;;;;;;4.20;99.90;;;;;;2720704;39;20382;31
2022/11/25 03:33:31;;;;;;;;;;;4.20;99.90;;;;;;2622000;46;19938;31
2022/11/25 03:36:06;;;;;;;;;;;4.20;99.90;;;;;;2773647;31;20536;31
2022/11/25 03:38:40;;;;;;;;;;;4.20;99.90;;;;;;2614012;46;20715;31
2022/11/25 03:41:14;;;;;;;;;;;4.20;99.90;;;;;;2603288;54;19997;31
2022/11/25 03:43:52;;;;;;;;;;;4.20;99.90;;;;;;2621841;46;19935;31
2022/11/25 03:46:25;;;;;;;;;;;4.20;99.90;;;;;;2603468;54;19938;31
2022/11/25 03:49:00;;;;;;;;;;;4.20;99.90;;;;;;2603256;54;20786;31
2022/11/25 03:51:34;;;;;;;;;;;4.10;99.90;;;;;;2621918;46;19935;31
2022/11/25 03:54:10;;;;;;;;;;;4.20;99.90;;;;;;2603443;54;20809;31
2022/11/25 03:57:05;;;;;;;;;;;4.10;99.90;;;;;;2701980;39;20393;31
2022/11/25 03:59:43;;;;;;;;;;;4.10;99.90;;;;;;2603250;54;20655;31
2022/11/25 04:02:17;;;;;;;;;;;4.20;99.90;;;;;;2603317;54;20041;31
2022/11/25 04:04:51;;;;;;;;;;;4.20;99.90;;;;;;2603282;54;19935;31
2022/11/25 04:07:25;;;;;;;;;;;4.20;99.90;;;;;;2603194;54;19947;31
2022/11/25 04:10:02;;;;;;;;;;;4.20;99.90;;;;;;2621921;47;19939;31
2022/11/25 04:12:48;;;;;;;;;;;4.20;99.90;;;;;;2603361;54;20694;31
2022/11/25 04:15:31;;;;;;;;;;;4.30;99.90;;;;;;2621955;47;19950;31
2022/11/25 04:18:05;;;;;;;;;;;4.30;99.90;;;;;;2621681;47;19942;31
2022/11/25 04:20:40;;;;;;;;;;;4.30;99.90;;;;;;2603211;54;19947;31
2022/11/25 04:23:14;;;;;;;;;;;4.20;99.90;;;;;;2621515;47;19935;31
2022/11/25 04:25:56;;;;;;;;;;;4.30;99.90;;;;;;2621649;47;20790;31
2022/11/25 04:28:37;;;;;;;;;;;4.30;99.90;;;;;;2602992;54;19947;31
2022/11/25 04:31:15;;;;;;;;;;;4.30;99.90;;;;;;2621638;47;19935;31
2022/11/25 04:33:51;;;;;;;;;;;4.30;99.90;;;;;;2720345;39;20362;31
2022/11/25 04:36:29;;;;;;;;;;;4.30;99.90;;;;;;2603321;54;20727;31
2022/11/25 04:39:02;;;;;;;;;;;4.30;99.90;;;;;;2622546;46;19985;31
2022/11/25 04:41:37;;;;;;;;;;;4.30;99.90;;;;;;2603878;54;20755;31
2022/11/25 04:44:11;;;;;;;;;;;4.30;99.90;;;;;;2622380;46;20001;31
2022/11/25 04:46:49;;;;;;;;;;;4.30;99.90;;;;;;2622538;46;19934;31
2022/11/25 04:49:24;;;;;;;;;;;4.40;99.90;;;;;;2622386;46;20802;31
2022/11/25 04:52:00;;;;;;;;;;;4.40;99.90;;;;;;2603934;54;20716;31
2022/11/25 04:54:34;;;;;;;;;;;4.40;99.90;;;;;;2603757;54;19935;31
2022/11/25 04:57:11;;;;;;;;;;;4.40;99.90;;;;;;2603025;54;20809;31
2022/11/25 04:59:44;;;;;;;;;;;4.40;99.90;;;;;;2603938;54;20778;31
2022/11/25 05:02:23;;;;;;;;;;;4.40;99.90;;;;;;2622276;46;20470;31
2022/11/25 05:05:05;;;;;;;;;;;4.40;99.90;;;;;;2604064;54;19935;31
2022/11/25 05:07:40;;;;;;;;;;;4.40;99.90;;;;;;2622211;46;19942;31
2022/11/25 05:10:15;;;;;;;;;;;4.40;99.90;;;;;;2622592;46;19993;31
2022/11/25 05:12:54;;;;;;;;;;;4.40;99.90;;;;;;2604057;54;19939;31
2022/11/25 05:15:28;;;;;;;;;;;4.40;99.90;;;;;;2622575;46;19939;31
2022/11/25 05:18:06;;;;;;;;;;;4.30;99.90;;;;;;2622418;46;20836;31
2022/11/25 05:20:49;;;;;;;;;;;4.40;99.90;;;;;;2603910;54;19942;31
2022/11/25 05:23:27;;;;;;;;;;;4.40;99.90;;;;;;2603934;54;20788;31
2022/11/25 05:26:01;;;;;;;;;;;4.40;99.90;;;;;;2622480;46;19935;31
2022/11/25 05:28:40;;;;;;;;;;;4.40;99.90;;;;;;2603964;54;19934;31
2022/11/25 05:31:16;;;;;;;;;;;4.40;99.90;;;;;;2622489;46;19962;31
2022/11/25 05:33:54;;;;;;;;;;;4.40;99.90;;;;;;2603602;54;20006;31
2022/11/25 05:36:29;;;;;;;;;;;4.40;99.90;;;;;;2603997;54;19934;31
2022/11/25 05:39:03;;;;;;;;;;;4.40;99.90;;;;;;2622173;46;19934;31
2022/11/25 05:41:59;;;;;;;;;;;4.50;99.90;;;;;;2603657;54;19981;31
2022/11/25 05:44:36;;;;;;;;;;;4.40;99.90;;;;;;2603642;54;20815;31
2022/11/25 05:47:09;;;;;;;;;;;4.40;99.90;;;;;;2603816;54;19977;31
2022/11/25 05:49:49;;;;;;;;;;;4.50;99.90;;;;;;2603574;54;20806;31
2022/11/25 05:52:29;;;;;;;;;;;4.50;99.90;;;;;;2603725;54;20785;31
2022/11/25 05:55:07;;;;;;;;;;;4.50;99.90;;;;;;2603616;54;20802;31
2022/11/25 05:57:42;;;;;;;;;;;4.50;99.90;;;;;;2622137;46;19942;31
2022/11/25 06:00:16;;;;;;;;;;;4.50;99.90;;;;;;2603707;54;20781;31
2022/11/25 06:02:59;;;;;;;;;;;4.50;99.90;;;;;;2603894;54;20716;31
2022/11/25 06:05:40;;;;;;;;;;;4.50;99.90;;;;;;2603494;54;20005;31
2022/11/25 06:08:14;;;;;;;;;;;4.50;99.90;;;;;;2603833;54;20797;31
2022/11/25 06:10:48;;;;;;;;;;;4.50;99.90;;;;;;2603668;54;20704;31
2022/11/25 06:13:23;;;;;;;;;;;4.60;99.90;;;;;;2603822;54;19934;31
2022/11/25 06:15:59;;;;;;;;;;;4.50;99.90;;;;;;2603505;54;19939;31
2022/11/25 06:18:39;;;;;;;;;;;4.60;99.90;;;;;;2603365;54;20759;31
2022/11/25 06:21:18;;;;;;;;;;;4.60;99.90;;;;;;2603679;54;20720;31
2022/11/25 06:23:52;;;;;;;;;;;4.60;99.90;;;;;;2622243;46;19942;31
2022/11/25 06:26:29;;;;;;;;;;;4.60;99.90;;;;;;2603675;54;19942;31
2022/11/25 06:29:04;;;;;;;;;;;4.60;99.90;;;;;;2603530;54;19935;31
2022/11/25 06:31:39;;;;;;;;;;;4.70;99.90;;;;;;2792074;31;20533;31
2022/11/25 06:34:40;;;;;;;;;;;4.60;99.90;;;;;;2603618;54;19942;31
2022/11/25 06:37:27;;;;;;;;;;;4.70;99.90;;;;;;2603535;54;19935;31
2022/11/25 06:40:01;;;;;;;;;;;4.70;99.90;;;;;;2603430;54;19934;31
2022/11/25 06:42:35;;;;;;;;;;;4.70;99.90;;;;;;2621967;46;19941;31
2022/11/25 06:45:11;;;;;;;;;;;4.70;99.90;;;;;;2720798;39;20428;31
2022/11/25 06:47:46;;;;;;;;;;;4.70;99.90;;;;;;2603757;54;20764;31
2022/11/25 06:50:22;;;;;;;;;;;4.70;99.90;;;;;;2603403;54;20796;31
2022/11/25 06:52:59;;;;;;;;;;;4.70;99.90;;;;;;2621688;46;20829;31
2022/11/25 06:55:35;;;;;;;;;;;4.70;99.90;;;;;;2603696;54;20767;31
2022/11/25 06:58:09;;;;;;;;;;;4.70;99.90;;;;;;2617006;46;20826;31
2022/11/25 07:01:05;;;;;;;;;;;4.80;99.90;;;;;;2622080;46;19957;31
2022/11/25 07:03:39;;;;;;;;;;;4.80;99.90;;;;;;2622009;46;20764;31
2022/11/25 07:06:13;;;;;;;;;;;4.80;99.90;;;;;;2603656;54;19935;31
2022/11/25 07:08:50;;;;;;;;;;;4.80;99.90;;;;;;2603627;54;19942;31
2022/11/25 07:11:24;;;;;;;;;;;4.90;99.90;;;;;;2603340;54;19989;31
2022/11/25 07:13:59;;;;;;;;;;;4.90;99.90;;;;;;2603559;54;20781;31
2022/11/25 07:16:33;;;;;;;;;;;4.90;99.90;;;;;;2603372;54;19935;31
2022/11/25 07:19:07;;;;;;;;;;;4.90;99.90;;;;;;2621197;46;20839;31
2022/11/25 07:21:45;;;;;;;;;;;5.00;99.90;;;;;;2603537;54;20014;31
2022/11/25 07:24:22;;;;;;;;;;;5.00;99.90;;;;;;2622238;46;20790;31
2022/11/25 07:26:56;;;;;;;;;;;5.10;99.90;;;;;;2603499;54;19946;31
2022/11/25 07:29:31;;;;;;;;;;;5.10;99.90;;;;;;2603519;54;19935;31
2022/11/25 07:32:25;;;;;;;;;;;5.10;99.90;;;;;;2622154;46;20833;31
2022/11/25 07:35:00;;;;;;;;;;;5.20;99.90;;;;;;2720620;39;20381;31
2022/11/25 07:37:34;;;;;;;;;;;5.20;99.90;;;;;;2603441;54;19935;31
2022/11/25 07:40:12;;;;;;;;;;;5.30;99.90;;;;;;2603234;54;19942;31
2022/11/25 07:42:47;;;;;;;;;;;5.30;99.90;;;;;;2603194;54;20791;31
2022/11/25 07:45:23;;;;;;;;;;;5.30;99.90;;;;;;2791738;31;20429;31
2022/11/25 07:48:11;;;;;;;;;;;5.30;99.90;;;;;;2603393;54;20500;31
2022/11/25 07:50:44;;;;;;;;;;;5.40;99.90;;;;;;2603192;54;20675;31
2022/11/25 07:53:19;;;;;;;;;;;5.40;99.90;;;;;;2720176;39;20500;31
2022/11/25 07:55:57;;;;;;;;;;;5.40;99.90;;;;;;2602995;54;19989;31
2022/11/25 07:58:31;;;;;;;;;;;5.40;99.90;;;;;;2603195;54;20006;31
2022/11/25 08:01:05;;;;;;;;;;;5.40;99.90;;;;;;2603432;54;19993;31
2022/11/25 08:03:42;;;;;;;;;;;5.50;99.90;;;;;;2773506;31;20525;31
2022/11/25 08:06:19;;;;;;;;;;;5.50;99.90;;;;;;2603055;54;20771;31
2022/11/25 08:08:54;;;;;;;;;;;5.50;99.90;;;;;;2616273;47;19950;31
2022/11/25 08:11:31;;;;;;;;;;;5.50;99.90;;;;;;2622034;47;19941;31
2022/11/25 08:14:05;;;;;;;;;;;5.60;99.90;;;;;;2622679;46;20807;31
2022/11/25 08:16:40;;;;;;;;;;;5.60;99.90;;;;;;2622694;46;20766;31
2022/11/25 08:19:17;;;;;;;;;;;5.60;99.90;;;;;;2604332;54;20734;31
2022/11/25 08:21:51;;;;;;;;;;;5.60;99.90;;;;;;2604075;54;19935;31
2022/11/25 08:24:25;;;;;;;;;;;5.60;99.90;;;;;;2622650;46;19989;31
2022/11/25 08:27:03;;;;;;;;;;;5.60;99.90;;;;;;2792470;31;22364;31
2022/11/25 08:29:37;;;;;;;;;;;5.60;99.90;;;;;;2603845;54;20006;31
2022/11/25 08:32:11;;;;;;;;;;;5.60;99.90;;;;;;2603838;54;19946;31
2022/11/25 08:34:45;;;;;;;;;;;5.60;99.90;;;;;;2603309;54;20061;31
2022/11/25 08:37:18;;;;;;;;;;;5.60;99.90;;;;;;2604048;54;19997;31
2022/11/25 08:39:52;;;;;;;;;;;5.70;99.90;;;;;;2603128;54;20740;31
2022/11/25 08:42:30;;;;;;;;;;;5.70;99.90;;;;;;2603885;54;19942;31
2022/11/25 08:45:06;;;;;;;;;;;5.70;99.90;;;;;;2603969;54;19950;31
2022/11/25 08:47:41;;;;;;;;;;;5.80;99.90;;;;;;2603889;54;19935;31
2022/11/25 08:50:16;;;;;;;;;;;5.80;99.90;;;;;;2603949;54;19934;31
2022/11/25 08:52:52;;;;;;;;;;;5.80;99.90;;;;;;2603794;54;19935;31
2022/11/25 08:55:27;;;;;;;;;;;5.80;99.90;;;;;;2622560;46;19939;31
2022/11/25 08:58:08;;;;;;;;;;;5.90;99.90;;;;;;2604123;54;20780;31
2022/11/25 09:00:43;;;;;;;;;;;5.90;99.90;;;;;;2603738;54;20882;31
2022/11/25 09:03:18;;;;;;;;;;;5.90;99.90;;;;;;2604126;54;20739;31
2022/11/25 09:05:54;;;;;;;;;;;5.90;99.90;;;;;;2604000;54;20012;31
2022/11/25 09:08:30;;;;;;;;;;;5.90;99.90;;;;;;2622468;46;20021;31
2022/11/25 09:11:05;;;;;;;;;;;6.00;99.90;;;;;;2603939;54;19941;31
2022/11/25 09:13:42;;;;;;;;;;;6.00;99.90;;;;;;2603924;54;19939;31
2022/11/25 09:16:15;;;;;;;;;;;6.00;99.90;;;;;;2622180;46;19951;31
2022/11/25 09:18:50;;;;;;;;;;;6.10;99.90;;;;;;2603836;54;20752;31
2022/11/25 09:21:29;;;;;;;;;;;6.20;99.90;;;;;;2622264;46;19939;31
2022/11/25 09:24:03;;;;;;;;;;;6.20;99.90;;;;;;2604021;54;19939;31
2022/11/25 09:26:39;;;;;;;;;;;6.20;99.90;;;;;;2603557;54;19934;31
2022/11/25 09:29:17;;;;;;;;;;;6.30;99.90;;;;;;2622502;46;19935;31
2022/11/25 09:31:51;;;;;;;;;;;6.40;99.90;;;;;;2603757;54;19961;31
2022/11/25 09:34:28;;;;;;;;;;;6.40;99.90;;;;;;2622548;46;20847;31
2022/11/25 09:37:03;;;;;;;;;;;6.40;99.90;;;;;;2603411;54;20002;31
2022/11/25 09:39:37;;;;;;;;;;;6.40;99.90;;;;;;2603835;54;19998;31
2022/11/25 09:47:57;;;;;;;;;;;6.70;99.90;;;;;;2604053;54;21265;31
2022/11/25 09:50:32;;;;;;;;;;;6.80;99.90;;;;;;2622470;46;20032;31
2022/11/25 09:53:10;;;;;;;;;;;6.90;99.90;;;;;;2622431;46;20780;31
2022/11/25 09:55:44;;;;;;;;;;;7.00;99.90;;;;;;2603838;54;19938;31
2022/11/25 09:58:22;;;;;;;;;;;7.10;99.90;;;;;;2603654;54;20861;31
2022/11/25 10:00:57;;;;;;;;;;;7.30;99.90;;;;;;2603738;54;20809;31
2022/11/25 10:03:36;;;;;;;;;;;7.50;99.90;;;;;;2603733;54;20792;31
2022/11/25 10:06:10;;;;;;;;;;;7.70;99.90;;;;;;2603656;54;20054;31
2022/11/25 10:08:43;;;;;;;;;;;8.80;99.90;;;;;;2603707;54;20712;31
2022/11/25 10:11:24;;;;;;;;;;;8.10;99.90;;;;;;2603884;54;19942;31
2022/11/25 10:14:00;;;;;;;;;;;8.20;99.90;;;;;;2622211;46;19951;31
2022/11/25 10:16:57;;;;;;;;;;;8.40;99.90;;;;;;2603512;54;20771;31
2022/11/25 10:19:38;;;;;;;;;;;8.40;99.90;;;;;;2603422;54;20748;31
2022/11/25 10:22:16;;;;;;;;;;;8.40;99.90;;;;;;2603539;54;19970;31
2022/11/25 10:24:51;;;;;;;;;;;8.40;99.90;;;;;;2622403;46;20762;31
2022/11/25 10:27:29;;;;;;;;;;;8.50;99.90;;;;;;2603695;54;20744;31
2022/11/25 10:30:05;;;;;;;;;;;8.40;99.90;;;;;;2621924;46;19934;31
2022/11/25 10:32:42;;;;;;;;;;;8.40;99.90;;;;;;2603789;54;20787;31
2022/11/25 10:35:22;;;;;;;;;;;8.40;99.90;;;;;;2603575;54;19942;31
2022/11/25 10:37:56;;;;;;;;;;;8.80;99.90;;;;;;2603591;54;19935;31
2022/11/25 10:40:30;;;;;;;;;;;8.40;99.90;;;;;;2603644;54;20730;31
2022/11/25 10:43:04;;;;;;;;;;;8.50;99.90;;;;;;2622169;46;19997;31
2022/11/25 10:45:39;;;;;;;;;;;8.60;99.90;;;;;;2621808;46;20789;31
2022/11/25 10:48:20;;;;;;;;;;;8.70;99.90;;;;;;2621858;46;20799;31
2022/11/25 10:51:04;;;;;;;;;;;8.80;99.90;;;;;;2603439;54;20794;31
2022/11/25 10:53:38;;;;;;;;;;;8.80;99.90;;;;;;2622371;46;19939;31
2022/11/25 10:56:18;;;;;;;;;;;8.80;99.90;;;;;;2603247;54;19941;31
2022/11/25 10:58:53;;;;;;;;;;;8.80;99.90;;;;;;2622111;46;20747;31
2022/11/25 11:01:27;;;;;;;;;;;8.80;99.90;;;;;;2603282;54;20061;31
2022/11/25 11:04:04;;;;;;;;;;;8.70;99.90;;;;;;2603720;54;20770;31
2022/11/25 11:06:42;;;;;;;;;;;8.70;99.90;;;;;;2621789;46;19934;31
2022/11/25 11:09:34;;;;;;;;;;;8.70;99.90;;;;;;2603577;54;19941;31
2022/11/25 11:12:10;;;;;;;;;;;8.70;99.90;;;;;;2622068;46;19962;31
2022/11/25 11:14:44;;;;;;;;;;;8.70;99.90;;;;;;2622196;46;19939;31
2022/11/25 11:17:29;;;;;;;;;;;8.70;99.90;;;;;;2603246;54;20805;31
2022/11/25 11:20:17;;;;;;;;;;;8.70;99.90;;;;;;2621763;46;20789;31
2022/11/25 11:22:57;;;;;;;;;;;8.70;99.90;;;;;;2621941;46;20770;31
2022/11/25 11:25:32;;;;;;;;;;;8.70;99.90;;;;;;2603421;54;20777;31
2022/11/25 11:28:06;;;;;;;;;;;8.80;99.90;;;;;;2603593;54;20793;31
2022/11/25 11:30:40;;;;;;;;;;;8.80;99.90;;;;;;2603457;54;20881;31
2022/11/25 11:33:29;;;;;;;;;;;8.90;99.90;;;;;;2702019;39;20374;31
2022/11/25 11:36:04;;;;;;;;;;;8.90;99.90;;;;;;2621737;46;19985;31
2022/11/25 11:38:43;;;;;;;;;;;9.00;99.90;;;;;;2621769;46;19993;31
2022/11/25 11:41:16;;;;;;;;;;;9.00;99.90;;;;;;2622032;46;20685;31
2022/11/25 11:43:56;;;;;;;;;;;9.00;99.90;;;;;;2603292;54;20751;31
2022/11/25 11:46:34;;;;;;;;;;;9.10;99.90;;;;;;2603016;54;20785;31
2022/11/25 11:49:15;;;;;;;;;;;9.00;99.90;;;;;;2603409;54;19938;31
2022/11/25 11:51:52;;;;;;;;;;;9.00;99.90;;;;;;2603498;54;20840;31
2022/11/25 11:54:33;;;;;;;;;;;9.00;99.90;;;;;;2621922;46;20879;31
2022/11/25 11:57:07;;;;;;;;;;;9.00;99.90;;;;;;2621508;46;20779;31
2022/11/25 11:59:48;;;;;;;;;;;9.00;99.90;;;;;;2773059;31;20501;31
2022/11/25 12:02:24;;;;;;;;;;;9.40;99.90;;;;;;2603278;54;19935;31
2022/11/25 12:05:02;;;;;;;;;;;8.90;99.90;;;;;;2603400;54;19935;31
2022/11/25 12:07:36;;;;;;;;;;;9.00;99.90;;;;;;2603179;54;20795;31
2022/11/25 12:10:18;;;;;;;;;;;9.00;99.90;;;;;;2602692;54;19935;31
2022/11/25 12:12:54;;;;;;;;;;;9.00;99.90;;;;;;2603288;54;19935;31
2022/11/25 12:15:35;;;;;;;;;;;9.00;99.90;;;;;;2621822;47;20910;31
2022/11/25 12:18:09;;;;;;;;;;;9.00;99.90;;;;;;2603379;54;19935;31
2022/11/25 12:20:46;;;;;;;;;;;9.00;99.90;;;;;;2603253;54;20730;31
2022/11/25 12:23:23;;;;;;;;;;;9.10;99.90;;;;;;2602955;54;19954;31
2022/11/25 12:26:01;;;;;;;;;;;9.00;99.90;;;;;;2701413;39;20409;31
2022/11/25 12:28:37;;;;;;;;;;;9.00;99.90;;;;;;2603372;54;19960;31
2022/11/25 12:31:14;;;;;;;;;;;9.20;99.90;;;;;;2621573;47;20827;31
2022/11/25 12:33:51;;;;;;;;;;;9.20;99.90;;;;;;2603181;54;20021;31
2022/11/25 12:36:30;;;;;;;;;;;9.20;99.90;;;;;;2603141;54;20723;31
2022/11/25 12:39:06;;;;;;;;;;;9.20;99.90;;;;;;2603046;54;20840;31
2022/11/25 12:41:45;;;;;;;;;;;9.20;99.90;;;;;;2603193;54;19941;31
2022/11/25 12:44:20;;;;;;;;;;;9.20;99.90;;;;;;2621573;47;19934;31
2022/11/25 12:46:55;;;;;;;;;;;9.20;99.90;;;;;;2621839;47;19989;31
2022/11/25 12:49:29;;;;;;;;;;;9.20;99.90;;;;;;2602837;54;20713;31
2022/11/25 12:52:17;;;;;;;;;;;9.20;99.90;;;;;;2602878;54;19986;31
2022/11/25 12:55:05;;;;;;;;;;;9.20;99.90;;;;;;2720068;39;20313;31
2022/11/25 12:57:49;;;;;;;;;;;9.20;99.90;;;;;;2622030;47;20472;31
2022/11/25 13:00:25;;;;;;;;;;;9.20;99.90;;;;;;2603917;54;20705;31
2022/11/25 13:03:23;;;;;;;;;;;9.20;99.90;;;;;;2622286;46;19935;31
2022/11/25 13:06:01;;;;;;;;;;;9.20;99.90;;;;;;2603896;54;20792;31
2022/11/25 13:08:41;;;;;;;;;;;9.20;99.90;;;;;;2604002;54;20773;31
2022/11/25 13:11:26;;;;;;;;;;;9.10;99.90;;;;;;2603744;54;20752;31
2022/11/25 13:14:04;;;;;;;;;;;9.10;99.90;;;;;;2603872;54;20815;31
2022/11/25 13:16:39;;;;;;;;;;;9.10;99.90;;;;;;2604060;54;20763;31
2022/11/25 13:19:14;;;;;;;;;;;9.10;99.90;;;;;;2622307;46;19942;31
2022/11/25 13:22:01;;;;;;;;;;;9.10;99.90;;;;;;2603901;54;19941;31
2022/11/25 13:24:36;;;;;;;;;;;9.10;99.90;;;;;;2603752;54;20759;31
2022/11/25 13:27:12;;;;;;;;;;;9.10;99.90;;;;;;2603047;54;20710;31
2022/11/25 13:30:03;;;;;;;;;;;9.10;99.90;;;;;;2792284;31;20357;31
2022/11/25 13:32:41;;;;;;;;;;;9.00;99.90;;;;;;2702503;39;20437;31
2022/11/25 13:35:36;;;;;;;;;;;9.00;99.90;;;;;;2622150;46;20001;31
2022/11/25 13:38:11;;;;;;;;;;;9.00;99.90;;;;;;2622403;46;19938;31
2022/11/25 13:40:45;;;;;;;;;;;9.00;99.90;;;;;;2603825;54;20798;31
2022/11/25 13:43:23;;;;;;;;;;;8.90;99.90;;;;;;2622635;46;20768;31
2022/11/25 13:46:01;;;;;;;;;;;8.90;99.90;;;;;;2603699;54;20060;31
2022/11/25 13:48:35;;;;;;;;;;;8.90;99.90;;;;;;2603679;54;20477;31
2022/11/25 13:51:17;;;;;;;;;;;8.90;99.90;;;;;;2603916;54;20577;31
2022/11/25 13:53:52;;;;;;;;;;;8.90;99.90;;;;;;2604050;54;19941;31
2022/11/25 13:56:30;;;;;;;;;;;8.90;99.90;;;;;;2603611;54;20756;31
2022/11/25 13:59:25;;;;;;;;;;;8.90;99.90;;;;;;2622257;46;19961;31
2022/11/25 14:02:22;;;;;;;;;;;8.80;99.90;;;;;;2621849;46;19942;31
2022/11/25 14:04:57;;;;;;;;;;;8.80;99.90;;;;;;2622019;46;19946;31
2022/11/25 14:07:32;;;;;;;;;;;8.80;99.90;;;;;;2603742;54;19941;31
2022/11/25 14:10:11;;;;;;;;;;;9.10;99.90;;;;;;2603344;54;20062;31
2022/11/25 14:13:01;;;;;;;;;;;9.10;99.90;;;;;;2603542;54;19943;31
2022/11/25 14:15:38;;;;;;;;;;;8.80;99.90;;;;;;2603395;54;20778;31
2022/11/25 14:18:14;;;;;;;;;;;8.80;99.90;;;;;;2603609;54;19943;31
2022/11/25 14:20:53;;;;;;;;;;;8.80;99.90;;;;;;2622169;46;19934;31
2022/11/25 14:23:38;;;;;;;;;;;8.80;99.90;;;;;;2622055;46;20765;31
2022/11/25 14:26:12;;;;;;;;;;;8.80;99.90;;;;;;2720941;39;20213;31
2022/11/25 14:29:06;;;;;;;;;;;8.80;99.90;;;;;;2603566;54;20812;31
2022/11/25 14:31:40;;;;;;;;;;;8.70;99.90;;;;;;2603741;54;19934;31
2022/11/25 14:34:14;;;;;;;;;;;8.70;99.90;;;;;;2602944;54;19950;31
2022/11/25 14:36:51;;;;;;;;;;;8.70;99.90;;;;;;2621134;46;19951;31
2022/11/25 14:39:27;;;;;;;;;;;9.00;99.90;;;;;;2620986;46;20822;31
2022/11/25 14:42:02;;;;;;;;;;;9.10;99.90;;;;;;2602649;54;20763;31
2022/11/25 14:44:38;;;;;;;;;;;9.10;99.90;;;;;;2602129;54;19973;31
2022/11/25 14:47:12;;;;;;;;;;;9.10;99.90;;;;;;2620501;46;19958;31
2022/11/25 14:49:47;;;;;;;;;;;9.10;99.90;;;;;;2603070;54;19946;31
2022/11/25 14:52:46;;;;;;;;;;;9.10;99.90;;;;;;2720771;39;20384;31
2022/11/25 14:55:26;;;;;;;;;;;9.00;99.90;;;;;;2603683;54;20024;31
2022/11/25 14:58:00;;;;;;;;;;;9.00;99.90;;;;;;2603701;54;20752;31
2022/11/25 15:00:35;;;;;;;;;;;8.90;99.90;;;;;;2603447;54;19961;31
2022/11/25 15:03:16;;;;;;;;;;;9.10;99.90;;;;;;2622269;46;20769;31
2022/11/25 15:05:55;;;;;;;;;;;8.80;99.90;;;;;;2621754;46;19942;31
2022/11/25 15:08:38;;;;;;;;;;;9.00;99.90;;;;;;2617754;46;19934;31
2022/11/25 15:11:13;;;;;;;;;;;8.70;99.90;;;;;;2603303;54;19941;31
2022/11/25 15:13:46;;;;;;;;;;;9.40;99.90;;;;;;2621810;46;20005;31
2022/11/25 15:16:21;;;;;;;;;;;8.70;99.90;;;;;;2603412;54;20776;31
2022/11/25 15:18:57;;;;;;;;;;;8.60;99.90;;;;;;2603502;54;21355;31
2022/11/25 15:21:31;;;;;;;;;;;8.60;99.90;;;;;;2603523;54;20748;31
2022/11/25 15:24:10;;;;;;;;;;;8.60;99.90;;;;;;2603485;54;19978;31
2022/11/25 15:26:45;;;;;;;;;;;8.60;99.90;;;;;;2603595;54;20798;31
2022/11/25 15:29:19;;;;;;;;;;;8.50;99.90;;;;;;2603731;54;19934;31
2022/11/25 15:31:54;;;;;;;;;;;8.50;99.90;;;;;;2603560;54;19934;31
2022/11/25 15:34:28;;;;;;;;;;;8.50;99.90;;;;;;2720179;39;21323;31
2022/11/25 15:37:02;;;;;;;;;;;8.40;99.90;;;;;;2621898;46;20799;31
2022/11/25 15:39:41;;;;;;;;;;;8.40;99.90;;;;;;2603217;54;20807;31
2022/11/25 15:42:17;;;;;;;;;;;8.40;99.90;;;;;;2603396;54;19935;31
2022/11/25 15:44:52;;;;;;;;;;;8.40;99.90;;;;;;2603341;54;19938;31
2022/11/25 15:47:26;;;;;;;;;;;8.40;99.90;;;;;;2603522;54;20720;31
2022/11/25 15:50:02;;;;;;;;;;;8.30;99.90;;;;;;2608652;46;19960;31